createdAt,value
2023-01-29T00:04:30.895Z,8.43
2023-01-29T00:09:23.665Z,8.60
2023-01-29T00:14:16.631Z,7.65
2023-01-29T00:19:09.915Z,7.65
2023-01-29T00:24:02.926Z,7.28
2023-01-29T00:29:01.014Z,7.40
2023-01-29T00:33:54.135Z,6.65
2023-01-29T00:38:54.933Z,7.43
2023-01-29T00:44:08.208Z,7.35
2023-01-29T00:49:02.072Z,7.15
2023-01-29T00:53:58.317Z,6.75
2023-01-29T00:58:51.197Z,6.85
2023-01-29T01:03:45.047Z,6.70
2023-01-29T01:08:56.147Z,6.68
2023-01-29T01:13:48.528Z,6.35
2023-01-29T01:18:41.474Z,6.32
2023-01-29T01:23:34.687Z,6.88
2023-01-29T01:28:28.564Z,6.13
2023-01-29T01:33:21.139Z,6.18
2023-01-29T01:38:14.151Z,6.13
2023-01-29T01:43:10.138Z,6.68
2023-01-29T01:48:08.862Z,6.28
2023-01-29T01:53:11.367Z,6.85
2023-01-29T01:58:12.638Z,6.43
2023-01-29T02:03:24.648Z,6.85
2023-01-29T02:08:53.297Z,6.85
2023-01-29T02:13:46.576Z,6.90
2023-01-29T02:18:40.222Z,6.95
2023-01-29T02:23:47.328Z,6.15
2023-01-29T02:28:53.242Z,6.10
2023-01-29T02:33:56.157Z,6.30
2023-01-29T02:39:20.176Z,6.22
2023-01-29T02:44:24.756Z,6.47
2023-01-29T02:49:28.212Z,6.22
2023-01-29T02:54:25.910Z,5.90
2023-01-29T02:59:36.166Z,5.65
2023-01-29T03:04:35.106Z,6.10
2023-01-29T03:09:38.079Z,6.15
2023-01-29T03:14:55.549Z,6.40
2023-01-29T03:19:49.819Z,5.65
2023-01-29T03:25:09.255Z,5.65
2023-01-29T03:30:27.905Z,5.63
2023-01-29T03:35:35.843Z,6.00
2023-01-29T03:40:37.776Z,5.77
2023-01-29T03:45:33.622Z,6.45
2023-01-29T03:50:41.503Z,6.03
2023-01-29T03:55:44.790Z,5.57
2023-01-29T04:00:45.794Z,5.20
2023-01-29T04:06:17.870Z,5.15
2023-01-29T04:11:22.593Z,5.75
2023-01-29T04:16:20.193Z,5.50
2023-01-29T04:21:32.095Z,5.30
2023-01-29T04:26:31.566Z,5.38
2023-01-29T04:31:50.761Z,5.32
2023-01-29T04:37:03.939Z,5.47
2023-01-29T04:42:11.293Z,5.20
2023-01-29T04:47:21.426Z,4.95
2023-01-29T04:52:44.642Z,5.30
2023-01-29T04:58:01.507Z,4.93
2023-01-29T05:02:54.548Z,5.03
2023-01-29T05:07:49.122Z,4.82
2023-01-29T05:12:47.173Z,5.10
2023-01-29T05:17:40.817Z,4.80
2023-01-29T05:22:37.939Z,5.13
2023-01-29T05:27:54.124Z,4.75
2023-01-29T05:32:47.867Z,4.78
2023-01-29T05:37:41.421Z,4.40
2023-01-29T05:42:35.234Z,4.93
2023-01-29T05:47:28.812Z,4.70
2023-01-29T05:52:21.887Z,4.65
2023-01-29T05:57:15.821Z,4.40
2023-01-29T06:02:09.158Z,4.47
2023-01-29T06:07:04.297Z,4.40
2023-01-29T06:11:57.280Z,5.07
2023-01-29T06:16:50.100Z,4.95
2023-01-29T06:21:44.634Z,4.95
2023-01-29T06:26:39.583Z,4.75
2023-01-29T06:31:38.899Z,4.82
2023-01-29T06:36:33.274Z,4.70
2023-01-29T06:41:26.242Z,4.65
2023-01-29T06:46:20.142Z,4.30
2023-01-29T06:51:13.674Z,4.72
2023-01-29T06:56:06.622Z,4.38
2023-01-29T07:01:08.098Z,4.53
2023-01-29T07:06:00.781Z,5.07
2023-01-29T07:10:53.574Z,5.00
2023-01-29T07:15:46.760Z,5.18
2023-01-29T07:20:43.051Z,4.88
2023-01-29T07:25:36.273Z,4.47
2023-01-29T07:30:29.724Z,4.15
2023-01-29T07:35:22.968Z,4.88
2023-01-29T07:40:16.500Z,8.35
2023-01-29T07:45:09.663Z,9.43
2023-01-29T07:50:03.350Z,8.07
2023-01-29T07:54:55.772Z,8.48
2023-01-29T07:59:48.655Z,14.15
2023-01-29T08:04:42.435Z,16.27
2023-01-29T08:09:35.190Z,15.75
2023-01-29T08:14:28.385Z,17.05
2023-01-29T08:19:21.824Z,16.80
2023-01-29T08:24:15.478Z,21.55
2023-01-29T08:29:08.891Z,21.85
2023-01-29T08:34:02.382Z,19.23
2023-01-29T08:38:56.275Z,21.35
2023-01-29T08:43:48.800Z,20.40
2023-01-29T08:48:42.768Z,20.00
2023-01-29T08:53:36.021Z,20.90
2023-01-29T08:58:30.121Z,20.67
2023-01-29T09:03:23.539Z,18.95
2023-01-29T09:08:16.370Z,22.38
2023-01-29T09:13:10.320Z,20.05
2023-01-29T09:18:07.288Z,18.80
2023-01-29T09:23:04.965Z,17.70
2023-01-29T09:27:58.700Z,16.17
2023-01-29T09:32:53.881Z,15.55
2023-01-29T09:37:51.549Z,17.70
2023-01-29T09:42:51.189Z,16.05
2023-01-29T09:47:45.508Z,16.02
2023-01-29T09:52:59.598Z,15.52
2023-01-29T09:57:58.104Z,16.13
2023-01-29T10:03:08.462Z,16.63
2023-01-29T10:08:12.456Z,16.55
2023-01-29T10:13:37.648Z,17.42
2023-01-29T10:18:50.134Z,15.88
2023-01-29T10:24:14.439Z,14.18
2023-01-29T10:29:08.610Z,11.57
2023-01-29T10:34:08.178Z,11.23
2023-01-29T10:39:01.688Z,9.23
2023-01-29T10:44:20.891Z,8.27
2023-01-29T10:49:22.769Z,7.00
2023-01-29T10:54:39.871Z,7.15
2023-01-29T10:59:45.068Z,6.35
2023-01-29T11:04:38.385Z,6.25
2023-01-29T11:09:39.357Z,5.93
2023-01-29T11:14:43.413Z,5.40
2023-01-29T11:19:44.936Z,4.95
2023-01-29T11:24:37.535Z,5.25
2023-01-29T11:29:48.058Z,5.65
2023-01-29T11:34:59.097Z,5.35
2023-01-29T11:39:52.173Z,4.50
2023-01-29T11:44:44.984Z,4.70
2023-01-29T11:49:39.516Z,4.97
2023-01-29T11:54:39.764Z,5.55
2023-01-29T11:59:41.116Z,5.68
2023-01-29T12:09:29.940Z,5.85
2023-01-29T12:14:34.815Z,5.70
2023-01-29T12:19:43.815Z,6.18
2023-01-29T12:24:44.572Z,5.97
2023-01-29T12:29:58.247Z,5.90
2023-01-29T12:35:05.664Z,4.90
2023-01-29T12:39:58.646Z,5.53
2023-01-29T12:44:56.886Z,5.18
2023-01-29T12:49:57.093Z,5.03
2023-01-29T12:54:58.738Z,24.63
2023-01-29T13:00:19.316Z,74.07
2023-01-29T13:05:25.906Z,85.97
2023-01-29T13:10:24.097Z,77.80
2023-01-29T13:15:34.151Z,69.45
2023-01-29T13:20:32.481Z,55.97
2023-01-29T13:25:26.661Z,49.38
2023-01-29T13:30:36.997Z,47.75
2023-01-29T13:35:30.459Z,43.63
2023-01-29T13:40:27.392Z,40.00
2023-01-29T13:45:42.437Z,32.10
2023-01-29T13:50:43.349Z,30.25
2023-01-29T14:00:36.385Z,22.52
2023-01-29T14:05:32.551Z,20.10
2023-01-29T14:10:27.480Z,17.50
2023-01-29T14:15:26.130Z,15.75
2023-01-29T14:20:22.321Z,14.95
2023-01-29T14:25:23.825Z,13.90
2023-01-29T14:30:19.413Z,13.60
2023-01-29T14:35:25.416Z,13.00
2023-01-29T14:40:20.328Z,11.85
2023-01-29T14:45:25.108Z,11.13
2023-01-29T14:50:29.724Z,11.07
2023-01-29T14:55:36.479Z,10.75
2023-01-29T15:00:33.397Z,10.05
2023-01-29T15:05:30.001Z,9.98
2023-01-29T15:10:38.271Z,9.27
2023-01-29T15:15:31.209Z,8.45
2023-01-29T15:20:46.021Z,8.57
2023-01-29T15:25:50.133Z,8.23
2023-01-29T15:30:45.100Z,8.18
2023-01-29T15:35:40.774Z,7.68
2023-01-29T15:40:34.724Z,8.02
2023-01-29T15:45:31.760Z,7.80
2023-01-29T15:50:25.473Z,7.45
2023-01-29T15:55:21.855Z,7.15
2023-01-29T16:00:28.048Z,7.63
2023-01-29T16:05:24.452Z,8.50
2023-01-29T16:10:21.208Z,7.90
2023-01-29T16:15:21.856Z,7.47
2023-01-29T16:20:42.809Z,7.03
2023-01-29T16:26:03.126Z,7.00
2023-01-29T16:31:01.928Z,7.22
2023-01-29T16:35:57.168Z,7.25
2023-01-29T16:41:08.638Z,6.90
2023-01-29T16:46:25.404Z,6.97
2023-01-29T16:51:36.953Z,7.05
2023-01-29T16:56:34.015Z,6.75
2023-01-29T17:01:33.650Z,6.38
2023-01-29T17:06:28.147Z,7.13
2023-01-29T17:11:30.202Z,7.10
2023-01-29T17:16:34.323Z,6.53
2023-01-29T17:21:27.384Z,6.63
2023-01-29T17:26:20.991Z,7.50
2023-01-29T17:31:14.265Z,7.20
2023-01-29T17:36:12.586Z,6.50
2023-01-29T17:41:13.846Z,6.53
2023-01-29T17:46:06.801Z,6.75
2023-01-29T17:51:03.242Z,7.20
2023-01-29T17:55:56.030Z,7.00
2023-01-29T18:00:49.501Z,6.88
2023-01-29T18:05:43.463Z,6.88
2023-01-29T18:10:36.629Z,6.85
2023-01-29T18:15:30.884Z,7.68
2023-01-29T18:20:26.502Z,9.25
2023-01-29T18:25:19.847Z,9.43
2023-01-29T18:30:13.588Z,10.57
2023-01-29T18:35:07.136Z,9.40
2023-01-29T18:39:59.840Z,10.95
2023-01-29T18:44:52.314Z,10.68
2023-01-29T18:49:45.315Z,10.57
2023-01-29T18:54:38.244Z,11.18
2023-01-29T18:59:31.150Z,10.18
2023-01-29T19:04:25.187Z,9.68
2023-01-29T19:09:17.738Z,12.00
2023-01-29T19:14:12.048Z,14.50
2023-01-29T19:19:05.804Z,16.20
2023-01-29T19:23:58.313Z,17.73
2023-01-29T19:28:51.764Z,17.27
2023-01-29T19:33:44.631Z,16.98
2023-01-29T19:38:38.838Z,16.95
2023-01-29T19:43:32.698Z,17.25
2023-01-29T19:48:26.696Z,14.95
2023-01-29T19:53:19.993Z,16.52
2023-01-29T19:58:13.826Z,14.05
2023-01-29T20:03:07.297Z,14.50
2023-01-29T20:08:00.487Z,14.40
2023-01-29T20:12:53.963Z,14.02
2023-01-29T20:17:47.210Z,14.77
2023-01-29T20:22:40.816Z,12.82
2023-01-29T20:27:33.149Z,14.35
2023-01-29T20:32:26.403Z,12.45
2023-01-29T20:37:20.467Z,12.50
2023-01-29T20:42:13.904Z,11.98
2023-01-29T20:47:07.412Z,12.02
2023-01-29T20:52:00.552Z,11.82
2023-01-29T20:56:53.069Z,12.70
2023-01-29T21:01:47.395Z,10.95
2023-01-29T21:06:40.086Z,11.00
2023-01-29T21:11:34.082Z,10.45
2023-01-29T21:16:29.040Z,10.05
2023-01-29T21:21:22.257Z,10.05
2023-01-29T21:26:15.196Z,9.98
2023-01-29T21:31:15.428Z,10.25
2023-01-29T21:36:10.482Z,9.87
2023-01-29T21:41:06.359Z,9.90
2023-01-29T21:46:01.729Z,10.18
2023-01-29T21:50:54.789Z,9.57
2023-01-29T21:55:48.959Z,10.00
2023-01-29T22:00:41.716Z,9.57
2023-01-29T22:05:34.902Z,9.10
2023-01-29T22:10:29.133Z,9.63
2023-01-29T22:15:24.047Z,8.65
2023-01-29T22:20:18.459Z,8.70
2023-01-29T22:25:12.096Z,8.90
2023-01-29T22:30:05.685Z,8.50
2023-01-29T22:34:59.087Z,9.07
2023-01-29T22:39:51.909Z,7.32
2023-01-29T22:44:50.310Z,7.22
2023-01-29T22:49:45.806Z,7.80
2023-01-29T22:54:44.211Z,7.28
2023-01-29T22:59:36.815Z,7.60
2023-01-29T23:04:30.256Z,8.10
2023-01-29T23:09:22.924Z,7.25
2023-01-29T23:14:16.204Z,6.50
2023-01-29T23:19:09.001Z,6.90
2023-01-29T23:24:01.515Z,6.97
2023-01-29T23:28:54.181Z,6.88
2023-01-29T23:33:46.952Z,6.15
2023-01-29T23:38:39.941Z,6.10
2023-01-29T23:43:33.632Z,6.07
2023-01-29T23:48:26.550Z,6.80
2023-01-29T23:53:20.010Z,6.10
2023-01-29T23:58:12.382Z,6.30
